EREK1: Neosho River near Erie

                                SHEF ID:       EREK1     NEOSHO R NR ERIE, KS
STATION TYPE:

PRECIP STAGE RIV-FLOW BAT-LOAD
in ft cfs volt
Ccp-Rev Ccp-Rev Ccp-Rev Ccp-Rev
(America/Chicago)
02/14 00:00 ---- 12.16 661 12.37
02/14 01:00 ---- 12.18 686 12.37
02/14 02:00 ---- 12.18 686 12.35
02/14 03:00 ---- 12.22 739 12.34
02/14 04:00 ---- 12.23 753 12.34
02/14 05:00 ---- 12.26 796 12.33
02/14 06:00 ---- 12.29 841 12.31
02/14 07:00 ---- 12.30 856 12.32
02/14 08:00 ---- 12.31 872 12.31
02/14 09:00 ---- 12.33 904 12.34
02/14 10:00 ---- 12.37 971 12.34
02/14 11:00 ---- 12.41 1040 12.37
02/14 12:00 ---- 12.49 1150 12.50
02/14 13:00 ---- 12.52 1180 12.89
02/14 14:00 ---- 12.61 1290 13.16
02/14 15:00 ---- 12.73 1430 12.80
02/14 16:00 ---- 12.84 1570 12.61
02/14 17:00 ---- 12.91 1670 12.50
02/14 18:00 ---- 12.99 1790 12.42
02/14 19:00 ---- 13.09 1880 12.37
02/14 20:00 ---- 13.14 1930 12.34
02/14 21:00 ---- 13.19 1980 12.33
02/14 22:00 ---- 13.23 2020 12.32
02/14 23:00 ---- 13.28 2070 12.31
Data processed at Sun 15Feb2026 05:23 GMT

NOTICE: If you are parsing this page

Please convert to using our Data API. Starting early 2026 we will be migrating to: https://water.usace.army.mil with modern pages rendered in JavaScript. When this migration completes you will no longer be able to scrape this page! CWMSDataAPI (CDA)

Timeseries IDs (TSIDs)

TSIDs used from left to right in the data table
ERIE.Precip-Inc.Total.1Hour.1Hour.Ccp-Rev
ERIE.Stage.Inst.1Hour.0.Ccp-Rev
ERIE.Flow.Inst.1Hour.0.Ccp-Rev
ERIE.Volt-Battery Load.Inst.1Hour.0.Ccp-Rev

                            

All information presented herein is the property of the government of the United States of America and may be revised or deleted at any time without prior notice. Dissemination of this information without the expressed written consent of the Public Affairs Office, Tulsa District U.S. Army Corps of Engineers is strictly prohibited. These data are gathered electronically and, as presented, have NOT undergone any form of quality control. These data are NOT guaranteed to be valid or correct.